sensor_id;sensor_type;location;lat;lon;timestamp;P1;durP1;ratioP1;P2;durP2;ratioP2
52564;SDS011;38460;53.106;7.004;2024-02-21T00:02:19;10.60;;;4.93;;
52564;SDS011;38460;53.106;7.004;2024-02-21T00:04:45;10.77;;;4.78;;
52564;SDS011;38460;53.106;7.004;2024-02-21T00:07:11;8.55;;;5.22;;
52564;SDS011;38460;53.106;7.004;2024-02-21T00:09:36;12.20;;;4.22;;
52564;SDS011;38460;53.106;7.004;2024-02-21T00:12:02;10.50;;;3.88;;
52564;SDS011;38460;53.106;7.004;2024-02-21T00:14:29;10.18;;;3.95;;
52564;SDS011;38460;53.106;7.004;2024-02-21T00:16:55;9.55;;;3.88;;
52564;SDS011;38460;53.106;7.004;2024-02-21T00:19:21;10.40;;;4.97;;
52564;SDS011;38460;53.106;7.004;2024-02-21T00:21:46;9.90;;;3.90;;
52564;SDS011;38460;53.106;7.004;2024-02-21T00:24:12;10.38;;;4.18;;
52564;SDS011;38460;53.106;7.004;2024-02-21T00:26:38;6.80;;;3.00;;
52564;SDS011;38460;53.106;7.004;2024-02-21T00:29:04;12.52;;;3.92;;
52564;SDS011;38460;53.106;7.004;2024-02-21T00:31:30;9.82;;;3.85;;
52564;SDS011;38460;53.106;7.004;2024-02-21T00:33:56;11.57;;;4.55;;
52564;SDS011;38460;53.106;7.004;2024-02-21T00:36:22;11.10;;;4.22;;
52564;SDS011;38460;53.106;7.004;2024-02-21T00:38:48;11.25;;;4.55;;
52564;SDS011;38460;53.106;7.004;2024-02-21T00:41:14;10.52;;;3.72;;
52564;SDS011;38460;53.106;7.004;2024-02-21T00:43:41;11.32;;;4.47;;
52564;SDS011;38460;53.106;7.004;2024-02-21T00:46:07;7.70;;;3.67;;
52564;SDS011;38460;53.106;7.004;2024-02-21T00:48:33;12.90;;;3.88;;
52564;SDS011;38460;53.106;7.004;2024-02-21T00:50:59;12.40;;;4.18;;
52564;SDS011;38460;53.106;7.004;2024-02-21T00:53:25;11.70;;;3.97;;
52564;SDS011;38460;53.106;7.004;2024-02-21T00:55:50;13.82;;;4.95;;
52564;SDS011;38460;53.106;7.004;2024-02-21T00:58:16;13.70;;;5.03;;
52564;SDS011;38460;53.106;7.004;2024-02-21T01:00:42;12.93;;;3.95;;
52564;SDS011;38460;53.106;7.004;2024-02-21T01:03:08;12.10;;;4.45;;
52564;SDS011;38460;53.106;7.004;2024-02-21T01:05:33;12.85;;;3.95;;
52564;SDS011;38460;53.106;7.004;2024-02-21T01:07:59;10.85;;;3.92;;
52564;SDS011;38460;53.106;7.004;2024-02-21T01:10:25;16.25;;;4.75;;
52564;SDS011;38460;53.106;7.004;2024-02-21T01:12:51;13.82;;;4.28;;
52564;SDS011;38460;53.106;7.004;2024-02-21T01:15:16;12.52;;;4.55;;
52564;SDS011;38460;53.106;7.004;2024-02-21T01:17:42;11.85;;;4.35;;
52564;SDS011;38460;53.106;7.004;2024-02-21T01:20:08;14.15;;;4.32;;
52564;SDS011;38460;53.106;7.004;2024-02-21T01:22:34;10.05;;;4.38;;
52564;SDS011;38460;53.106;7.004;2024-02-21T01:25:00;13.70;;;4.78;;
52564;SDS011;38460;53.106;7.004;2024-02-21T01:27:25;10.82;;;4.68;;
52564;SDS011;38460;53.106;7.004;2024-02-21T01:29:51;12.40;;;4.50;;
52564;SDS011;38460;53.106;7.004;2024-02-21T01:32:17;13.82;;;4.25;;
52564;SDS011;38460;53.106;7.004;2024-02-21T01:34:43;12.93;;;5.18;;
52564;SDS011;38460;53.106;7.004;2024-02-21T01:37:08;13.45;;;4.07;;
52564;SDS011;38460;53.106;7.004;2024-02-21T01:39:34;10.43;;;4.85;;
52564;SDS011;38460;53.106;7.004;2024-02-21T01:42:00;14.95;;;4.22;;
52564;SDS011;38460;53.106;7.004;2024-02-21T01:44:26;13.48;;;4.45;;
52564;SDS011;38460;53.106;7.004;2024-02-21T01:46:54;16.42;;;4.25;;
52564;SDS011;38460;53.106;7.004;2024-02-21T01:49:20;11.55;;;4.13;;
52564;SDS011;38460;53.106;7.004;2024-02-21T01:51:47;13.88;;;3.67;;
52564;SDS011;38460;53.106;7.004;2024-02-21T01:54:14;10.00;;;4.38;;
52564;SDS011;38460;53.106;7.004;2024-02-21T01:56:41;9.77;;;4.13;;
52564;SDS011;38460;53.106;7.004;2024-02-21T01:59:08;13.63;;;5.32;;
52564;SDS011;38460;53.106;7.004;2024-02-21T02:01:33;13.20;;;4.60;;
52564;SDS011;38460;53.106;7.004;2024-02-21T02:03:59;11.05;;;4.50;;
52564;SDS011;38460;53.106;7.004;2024-02-21T02:06:25;13.55;;;4.55;;
52564;SDS011;38460;53.106;7.004;2024-02-21T02:08:51;14.38;;;5.80;;
52564;SDS011;38460;53.106;7.004;2024-02-21T02:11:18;15.50;;;4.78;;
52564;SDS011;38460;53.106;7.004;2024-02-21T02:13:43;15.75;;;5.93;;
52564;SDS011;38460;53.106;7.004;2024-02-21T02:16:09;13.00;;;5.05;;
52564;SDS011;38460;53.106;7.004;2024-02-21T02:18:35;15.48;;;6.38;;
52564;SDS011;38460;53.106;7.004;2024-02-21T02:21:01;11.77;;;4.15;;
52564;SDS011;38460;53.106;7.004;2024-02-21T02:23:31;16.35;;;4.40;;
52564;SDS011;38460;53.106;7.004;2024-02-21T02:25:58;13.07;;;4.55;;
52564;SDS011;38460;53.106;7.004;2024-02-21T02:28:25;11.32;;;4.22;;
52564;SDS011;38460;53.106;7.004;2024-02-21T02:30:52;13.65;;;4.85;;
52564;SDS011;38460;53.106;7.004;2024-02-21T02:33:17;11.05;;;4.75;;
52564;SDS011;38460;53.106;7.004;2024-02-21T02:35:43;11.48;;;4.38;;
52564;SDS011;38460;53.106;7.004;2024-02-21T02:38:09;12.27;;;5.25;;
52564;SDS011;38460;53.106;7.004;2024-02-21T02:40:37;10.23;;;5.30;;
52564;SDS011;38460;53.106;7.004;2024-02-21T02:43:04;13.25;;;4.55;;
52564;SDS011;38460;53.106;7.004;2024-02-21T02:45:30;15.65;;;5.03;;
52564;SDS011;38460;53.106;7.004;2024-02-21T02:47:56;11.85;;;4.50;;
52564;SDS011;38460;53.106;7.004;2024-02-21T02:50:23;12.27;;;4.15;;
52564;SDS011;38460;53.106;7.004;2024-02-21T02:52:49;9.40;;;4.65;;
52564;SDS011;38460;53.106;7.004;2024-02-21T02:55:15;10.70;;;4.93;;
52564;SDS011;38460;53.106;7.004;2024-02-21T02:57:41;9.13;;;4.43;;
52564;SDS011;38460;53.106;7.004;2024-02-21T03:00:07;10.52;;;4.93;;
52564;SDS011;38460;53.106;7.004;2024-02-21T03:02:36;8.23;;;4.38;;
52564;SDS011;38460;53.106;7.004;2024-02-21T03:05:03;13.18;;;5.30;;
52564;SDS011;38460;53.106;7.004;2024-02-21T03:07:41;12.82;;;5.78;;
52564;SDS011;38460;53.106;7.004;2024-02-21T03:10:07;10.13;;;4.97;;
52564;SDS011;38460;53.106;7.004;2024-02-21T03:12:33;11.07;;;5.15;;
52564;SDS011;38460;53.106;7.004;2024-02-21T03:14:59;9.85;;;4.65;;
52564;SDS011;38460;53.106;7.004;2024-02-21T03:17:25;12.95;;;5.35;;
52564;SDS011;38460;53.106;7.004;2024-02-21T03:19:54;11.57;;;5.45;;
52564;SDS011;38460;53.106;7.004;2024-02-21T03:22:20;11.30;;;4.80;;
52564;SDS011;38460;53.106;7.004;2024-02-21T03:24:49;10.27;;;5.50;;
52564;SDS011;38460;53.106;7.004;2024-02-21T03:27:15;12.70;;;5.25;;
52564;SDS011;38460;53.106;7.004;2024-02-21T03:29:41;11.18;;;5.63;;
52564;SDS011;38460;53.106;7.004;2024-02-21T03:32:06;14.15;;;6.25;;
52564;SDS011;38460;53.106;7.004;2024-02-21T03:34:32;12.70;;;5.65;;
52564;SDS011;38460;53.106;7.004;2024-02-21T03:36:58;13.70;;;5.68;;
52564;SDS011;38460;53.106;7.004;2024-02-21T03:39:25;12.05;;;6.20;;
52564;SDS011;38460;53.106;7.004;2024-02-21T03:41:50;14.48;;;6.15;;
52564;SDS011;38460;53.106;7.004;2024-02-21T03:44:16;13.57;;;6.13;;
52564;SDS011;38460;53.106;7.004;2024-02-21T03:46:42;18.33;;;6.20;;
52564;SDS011;38460;53.106;7.004;2024-02-21T03:49:08;17.33;;;5.88;;
52564;SDS011;38460;53.106;7.004;2024-02-21T03:51:34;13.13;;;5.95;;
52564;SDS011;38460;53.106;7.004;2024-02-21T03:54:00;14.05;;;5.82;;
52564;SDS011;38460;53.106;7.004;2024-02-21T03:56:26;20.40;;;6.40;;
52564;SDS011;38460;53.106;7.004;2024-02-21T03:58:52;17.23;;;6.30;;
52564;SDS011;38460;53.106;7.004;2024-02-21T04:01:18;19.80;;;7.25;;
52564;SDS011;38460;53.106;7.004;2024-02-21T04:03:44;14.82;;;7.10;;
52564;SDS011;38460;53.106;7.004;2024-02-21T04:06:09;16.75;;;6.78;;
52564;SDS011;38460;53.106;7.004;2024-02-21T04:08:35;19.00;;;7.75;;
52564;SDS011;38460;53.106;7.004;2024-02-21T04:11:01;15.25;;;7.40;;
52564;SDS011;38460;53.106;7.004;2024-02-21T04:13:27;22.50;;;7.47;;
52564;SDS011;38460;53.106;7.004;2024-02-21T04:15:53;14.75;;;7.40;;
52564;SDS011;38460;53.106;7.004;2024-02-21T04:18:19;15.13;;;7.63;;
52564;SDS011;38460;53.106;7.004;2024-02-21T04:20:44;12.63;;;7.07;;
52564;SDS011;38460;53.106;7.004;2024-02-21T04:23:10;22.60;;;8.60;;
52564;SDS011;38460;53.106;7.004;2024-02-21T04:25:36;11.98;;;6.60;;
52564;SDS011;38460;53.106;7.004;2024-02-21T04:28:02;24.80;;;8.15;;
52564;SDS011;38460;53.106;7.004;2024-02-21T04:30:28;12.75;;;6.90;;
52564;SDS011;38460;53.106;7.004;2024-02-21T04:32:53;16.50;;;7.88;;
52564;SDS011;38460;53.106;7.004;2024-02-21T04:35:19;17.85;;;7.90;;
52564;SDS011;38460;53.106;7.004;2024-02-21T04:37:45;20.35;;;8.25;;
52564;SDS011;38460;53.106;7.004;2024-02-21T04:40:11;16.58;;;6.65;;
52564;SDS011;38460;53.106;7.004;2024-02-21T04:42:37;19.98;;;8.10;;
52564;SDS011;38460;53.106;7.004;2024-02-21T04:45:03;17.60;;;6.80;;
52564;SDS011;38460;53.106;7.004;2024-02-21T04:47:29;15.38;;;7.40;;
52564;SDS011;38460;53.106;7.004;2024-02-21T04:49:54;21.17;;;7.78;;
52564;SDS011;38460;53.106;7.004;2024-02-21T04:52:20;18.13;;;7.18;;
52564;SDS011;38460;53.106;7.004;2024-02-21T04:54:46;15.48;;;7.18;;
52564;SDS011;38460;53.106;7.004;2024-02-21T04:57:12;16.38;;;7.55;;
52564;SDS011;38460;53.106;7.004;2024-02-21T04:59:43;16.83;;;7.50;;
52564;SDS011;38460;53.106;7.004;2024-02-21T05:02:09;18.83;;;7.63;;
52564;SDS011;38460;53.106;7.004;2024-02-21T05:04:35;14.27;;;6.95;;
52564;SDS011;38460;53.106;7.004;2024-02-21T05:07:02;17.17;;;8.38;;
52564;SDS011;38460;53.106;7.004;2024-02-21T05:09:27;16.13;;;8.93;;
52564;SDS011;38460;53.106;7.004;2024-02-21T05:11:53;16.77;;;7.65;;
52564;SDS011;38460;53.106;7.004;2024-02-21T05:14:19;18.13;;;8.55;;
52564;SDS011;38460;53.106;7.004;2024-02-21T05:16:45;21.05;;;8.93;;
52564;SDS011;38460;53.106;7.004;2024-02-21T05:19:10;21.08;;;7.80;;
52564;SDS011;38460;53.106;7.004;2024-02-21T05:21:36;14.65;;;7.95;;
52564;SDS011;38460;53.106;7.004;2024-02-21T05:24:02;17.73;;;8.60;;
52564;SDS011;38460;53.106;7.004;2024-02-21T05:26:28;17.48;;;9.07;;
52564;SDS011;38460;53.106;7.004;2024-02-21T05:28:54;15.68;;;8.57;;
52564;SDS011;38460;53.106;7.004;2024-02-21T05:31:20;17.05;;;8.30;;
52564;SDS011;38460;53.106;7.004;2024-02-21T05:33:46;21.85;;;8.98;;
52564;SDS011;38460;53.106;7.004;2024-02-21T05:36:12;18.08;;;8.18;;
52564;SDS011;38460;53.106;7.004;2024-02-21T05:38:39;15.82;;;8.40;;
52564;SDS011;38460;53.106;7.004;2024-02-21T05:41:05;17.10;;;8.80;;
52564;SDS011;38460;53.106;7.004;2024-02-21T05:43:31;15.50;;;8.15;;
52564;SDS011;38460;53.106;7.004;2024-02-21T05:45:57;18.92;;;8.15;;
52564;SDS011;38460;53.106;7.004;2024-02-21T05:48:23;21.67;;;8.57;;
52564;SDS011;38460;53.106;7.004;2024-02-21T05:50:49;20.42;;;8.75;;
52564;SDS011;38460;53.106;7.004;2024-02-21T05:53:15;16.13;;;9.32;;
52564;SDS011;38460;53.106;7.004;2024-02-21T05:55:41;18.40;;;9.20;;
52564;SDS011;38460;53.106;7.004;2024-02-21T05:58:07;18.88;;;8.90;;
52564;SDS011;38460;53.106;7.004;2024-02-21T06:00:36;19.00;;;8.60;;
52564;SDS011;38460;53.106;7.004;2024-02-21T06:03:02;20.58;;;10.02;;
52564;SDS011;38460;53.106;7.004;2024-02-21T06:05:28;20.48;;;8.70;;
52564;SDS011;38460;53.106;7.004;2024-02-21T06:07:54;25.08;;;10.95;;
52564;SDS011;38460;53.106;7.004;2024-02-21T06:10:20;22.27;;;9.38;;
52564;SDS011;38460;53.106;7.004;2024-02-21T06:12:46;18.88;;;10.50;;
52564;SDS011;38460;53.106;7.004;2024-02-21T06:15:12;27.45;;;11.75;;
52564;SDS011;38460;53.106;7.004;2024-02-21T06:17:38;23.15;;;11.82;;
52564;SDS011;38460;53.106;7.004;2024-02-21T06:20:03;29.67;;;12.65;;
52564;SDS011;38460;53.106;7.004;2024-02-21T06:22:30;28.77;;;11.77;;
52564;SDS011;38460;53.106;7.004;2024-02-21T06:24:56;33.10;;;12.13;;
52564;SDS011;38460;53.106;7.004;2024-02-21T06:27:21;31.10;;;12.80;;
52564;SDS011;38460;53.106;7.004;2024-02-21T06:29:47;29.02;;;12.77;;
52564;SDS011;38460;53.106;7.004;2024-02-21T06:32:13;36.45;;;13.60;;
52564;SDS011;38460;53.106;7.004;2024-02-21T06:34:38;32.15;;;13.90;;
52564;SDS011;38460;53.106;7.004;2024-02-21T06:37:04;30.08;;;12.95;;
52564;SDS011;38460;53.106;7.004;2024-02-21T06:39:30;30.10;;;13.45;;
52564;SDS011;38460;53.106;7.004;2024-02-21T06:41:55;31.88;;;12.48;;
52564;SDS011;38460;53.106;7.004;2024-02-21T06:44:21;30.67;;;13.98;;
52564;SDS011;38460;53.106;7.004;2024-02-21T06:46:47;32.38;;;12.30;;
52564;SDS011;38460;53.106;7.004;2024-02-21T06:49:13;25.30;;;12.07;;
52564;SDS011;38460;53.106;7.004;2024-02-21T06:51:41;29.70;;;12.70;;
52564;SDS011;38460;53.106;7.004;2024-02-21T06:54:08;30.67;;;12.98;;
52564;SDS011;38460;53.106;7.004;2024-02-21T06:56:35;31.45;;;14.10;;
52564;SDS011;38460;53.106;7.004;2024-02-21T06:59:02;31.33;;;13.50;;
52564;SDS011;38460;53.106;7.004;2024-02-21T07:01:31;31.73;;;11.90;;
52564;SDS011;38460;53.106;7.004;2024-02-21T07:03:57;29.90;;;13.07;;
52564;SDS011;38460;53.106;7.004;2024-02-21T07:06:23;26.98;;;11.88;;
52564;SDS011;38460;53.106;7.004;2024-02-21T07:08:49;24.73;;;12.23;;
52564;SDS011;38460;53.106;7.004;2024-02-21T07:11:15;31.10;;;12.43;;
52564;SDS011;38460;53.106;7.004;2024-02-21T07:13:41;25.52;;;12.20;;
52564;SDS011;38460;53.106;7.004;2024-02-21T07:16:06;30.27;;;12.98;;
52564;SDS011;38460;53.106;7.004;2024-02-21T07:18:33;31.05;;;13.13;;
52564;SDS011;38460;53.106;7.004;2024-02-21T07:20:59;28.15;;;11.30;;
52564;SDS011;38460;53.106;7.004;2024-02-21T07:23:24;38.00;;;12.95;;
52564;SDS011;38460;53.106;7.004;2024-02-21T07:25:50;32.35;;;12.45;;
52564;SDS011;38460;53.106;7.004;2024-02-21T07:28:16;40.38;;;12.80;;
52564;SDS011;38460;53.106;7.004;2024-02-21T07:30:42;30.27;;;12.45;;
52564;SDS011;38460;53.106;7.004;2024-02-21T07:33:08;34.70;;;12.75;;
52564;SDS011;38460;53.106;7.004;2024-02-21T07:35:34;26.35;;;11.93;;
52564;SDS011;38460;53.106;7.004;2024-02-21T07:38:03;26.25;;;11.20;;
52564;SDS011;38460;53.106;7.004;2024-02-21T07:40:30;33.25;;;12.75;;
52564;SDS011;38460;53.106;7.004;2024-02-21T07:42:56;24.33;;;11.20;;
52564;SDS011;38460;53.106;7.004;2024-02-21T07:45:21;29.75;;;12.50;;
52564;SDS011;38460;53.106;7.004;2024-02-21T07:47:49;27.02;;;12.45;;
52564;SDS011;38460;53.106;7.004;2024-02-21T07:50:15;29.55;;;13.20;;
52564;SDS011;38460;53.106;7.004;2024-02-21T07:52:41;29.58;;;11.65;;
52564;SDS011;38460;53.106;7.004;2024-02-21T07:55:07;22.88;;;11.10;;
52564;SDS011;38460;53.106;7.004;2024-02-21T07:57:35;27.60;;;13.18;;
52564;SDS011;38460;53.106;7.004;2024-02-21T08:00:01;25.10;;;12.43;;
52564;SDS011;38460;53.106;7.004;2024-02-21T08:02:29;27.20;;;11.82;;
52564;SDS011;38460;53.106;7.004;2024-02-21T08:04:54;26.00;;;13.50;;
52564;SDS011;38460;53.106;7.004;2024-02-21T08:07:20;32.85;;;13.52;;
52564;SDS011;38460;53.106;7.004;2024-02-21T08:09:46;27.85;;;14.05;;
52564;SDS011;38460;53.106;7.004;2024-02-21T08:12:12;27.83;;;15.27;;
52564;SDS011;38460;53.106;7.004;2024-02-21T08:14:37;26.27;;;13.50;;
52564;SDS011;38460;53.106;7.004;2024-02-21T08:17:03;26.35;;;15.20;;
52564;SDS011;38460;53.106;7.004;2024-02-21T08:19:29;25.60;;;15.40;;
52564;SDS011;38460;53.106;7.004;2024-02-21T08:21:55;23.85;;;12.15;;
52564;SDS011;38460;53.106;7.004;2024-02-21T08:24:21;21.77;;;11.23;;
52564;SDS011;38460;53.106;7.004;2024-02-21T08:26:48;20.20;;;11.63;;
52564;SDS011;38460;53.106;7.004;2024-02-21T08:29:13;21.65;;;13.20;;
52564;SDS011;38460;53.106;7.004;2024-02-21T08:31:39;28.40;;;13.10;;
52564;SDS011;38460;53.106;7.004;2024-02-21T08:34:05;31.98;;;15.48;;
52564;SDS011;38460;53.106;7.004;2024-02-21T08:36:31;27.92;;;14.68;;
52564;SDS011;38460;53.106;7.004;2024-02-21T08:39:01;27.55;;;14.65;;
52564;SDS011;38460;53.106;7.004;2024-02-21T08:41:33;30.70;;;15.55;;
52564;SDS011;38460;53.106;7.004;2024-02-21T08:43:59;27.55;;;13.52;;
52564;SDS011;38460;53.106;7.004;2024-02-21T08:46:25;26.13;;;12.52;;
52564;SDS011;38460;53.106;7.004;2024-02-21T08:48:52;28.75;;;13.65;;
52564;SDS011;38460;53.106;7.004;2024-02-21T08:51:18;26.30;;;13.65;;
52564;SDS011;38460;53.106;7.004;2024-02-21T08:53:45;28.55;;;15.25;;
52564;SDS011;38460;53.106;7.004;2024-02-21T08:56:11;24.58;;;12.70;;
52564;SDS011;38460;53.106;7.004;2024-02-21T08:58:37;26.95;;;13.40;;
52564;SDS011;38460;53.106;7.004;2024-02-21T09:01:04;29.48;;;13.38;;
52564;SDS011;38460;53.106;7.004;2024-02-21T09:03:32;26.85;;;14.27;;
52564;SDS011;38460;53.106;7.004;2024-02-21T09:05:58;27.08;;;12.93;;
52564;SDS011;38460;53.106;7.004;2024-02-21T09:08:25;22.70;;;12.77;;
52564;SDS011;38460;53.106;7.004;2024-02-21T09:10:53;27.10;;;14.10;;
52564;SDS011;38460;53.106;7.004;2024-02-21T09:13:19;24.38;;;13.77;;
52564;SDS011;38460;53.106;7.004;2024-02-21T09:15:44;26.77;;;12.95;;
52564;SDS011;38460;53.106;7.004;2024-02-21T09:18:10;26.83;;;14.27;;
52564;SDS011;38460;53.106;7.004;2024-02-21T09:20:36;29.85;;;13.68;;
52564;SDS011;38460;53.106;7.004;2024-02-21T09:23:02;25.60;;;13.68;;
52564;SDS011;38460;53.106;7.004;2024-02-21T09:25:27;25.75;;;14.10;;
52564;SDS011;38460;53.106;7.004;2024-02-21T09:27:53;30.70;;;14.40;;
52564;SDS011;38460;53.106;7.004;2024-02-21T09:30:20;25.70;;;15.45;;
52564;SDS011;38460;53.106;7.004;2024-02-21T09:32:46;36.08;;;15.90;;
52564;SDS011;38460;53.106;7.004;2024-02-21T09:35:12;26.70;;;15.45;;
52564;SDS011;38460;53.106;7.004;2024-02-21T09:37:38;25.42;;;15.20;;
52564;SDS011;38460;53.106;7.004;2024-02-21T09:40:04;27.75;;;16.08;;
52564;SDS011;38460;53.106;7.004;2024-02-21T09:42:40;28.65;;;16.08;;
52564;SDS011;38460;53.106;7.004;2024-02-21T09:45:19;28.23;;;16.48;;
52564;SDS011;38460;53.106;7.004;2024-02-21T09:50:51;24.60;;;15.75;;
52564;SDS011;38460;53.106;7.004;2024-02-21T09:53:20;26.95;;;15.60;;
52564;SDS011;38460;53.106;7.004;2024-02-21T09:55:49;27.88;;;16.40;;
52564;SDS011;38460;53.106;7.004;2024-02-21T09:58:16;27.40;;;16.45;;
52564;SDS011;38460;53.106;7.004;2024-02-21T10:00:42;29.55;;;16.65;;
52564;SDS011;38460;53.106;7.004;2024-02-21T10:03:07;26.55;;;16.30;;
52564;SDS011;38460;53.106;7.004;2024-02-21T10:05:37;31.88;;;16.23;;
52564;SDS011;38460;53.106;7.004;2024-02-21T10:08:04;23.13;;;15.38;;
52564;SDS011;38460;53.106;7.004;2024-02-21T10:10:40;31.13;;;17.20;;
52564;SDS011;38460;53.106;7.004;2024-02-21T10:13:09;29.55;;;16.27;;
52564;SDS011;38460;53.106;7.004;2024-02-21T10:16:02;26.13;;;16.92;;
52564;SDS011;38460;53.106;7.004;2024-02-21T10:18:28;27.92;;;17.50;;
52564;SDS011;38460;53.106;7.004;2024-02-21T10:21:01;29.73;;;16.13;;
52564;SDS011;38460;53.106;7.004;2024-02-21T10:23:26;25.65;;;17.40;;
52564;SDS011;38460;53.106;7.004;2024-02-21T10:25:52;25.13;;;16.42;;
52564;SDS011;38460;53.106;7.004;2024-02-21T10:28:18;27.60;;;15.55;;
52564;SDS011;38460;53.106;7.004;2024-02-21T10:30:51;31.70;;;16.05;;
52564;SDS011;38460;53.106;7.004;2024-02-21T10:33:17;30.30;;;16.20;;
52564;SDS011;38460;53.106;7.004;2024-02-21T10:35:47;25.13;;;16.13;;
52564;SDS011;38460;53.106;7.004;2024-02-21T10:38:14;26.60;;;16.73;;
52564;SDS011;38460;53.106;7.004;2024-02-21T10:40:40;27.98;;;16.17;;
52564;SDS011;38460;53.106;7.004;2024-02-21T10:43:06;26.90;;;15.65;;
52564;SDS011;38460;53.106;7.004;2024-02-21T10:45:37;24.00;;;14.93;;
52564;SDS011;38460;53.106;7.004;2024-02-21T10:50:39;25.80;;;15.73;;
52564;SDS011;38460;53.106;7.004;2024-02-21T10:53:20;26.55;;;15.77;;
52564;SDS011;38460;53.106;7.004;2024-02-21T10:56:14;23.50;;;14.77;;
52564;SDS011;38460;53.106;7.004;2024-02-21T10:58:49;29.65;;;16.98;;
52564;SDS011;38460;53.106;7.004;2024-02-21T11:01:15;24.30;;;14.85;;
52564;SDS011;38460;53.106;7.004;2024-02-21T11:03:43;24.00;;;14.52;;
52564;SDS011;38460;53.106;7.004;2024-02-21T11:06:11;25.05;;;14.25;;
52564;SDS011;38460;53.106;7.004;2024-02-21T11:08:38;20.45;;;13.55;;
52564;SDS011;38460;53.106;7.004;2024-02-21T11:11:04;24.85;;;14.27;;
52564;SDS011;38460;53.106;7.004;2024-02-21T11:13:37;22.42;;;13.68;;
52564;SDS011;38460;53.106;7.004;2024-02-21T11:16:20;24.63;;;13.38;;
52564;SDS011;38460;53.106;7.004;2024-02-21T11:18:47;22.40;;;13.10;;
52564;SDS011;38460;53.106;7.004;2024-02-21T11:21:13;21.45;;;12.35;;
52564;SDS011;38460;53.106;7.004;2024-02-21T11:23:38;22.00;;;13.27;;
52564;SDS011;38460;53.106;7.004;2024-02-21T11:26:07;20.70;;;11.75;;
52564;SDS011;38460;53.106;7.004;2024-02-21T11:28:34;23.00;;;12.73;;
52564;SDS011;38460;53.106;7.004;2024-02-21T11:31:07;21.58;;;13.30;;
52564;SDS011;38460;53.106;7.004;2024-02-21T11:33:34;20.58;;;11.57;;
52564;SDS011;38460;53.106;7.004;2024-02-21T11:36:01;20.15;;;11.35;;
52564;SDS011;38460;53.106;7.004;2024-02-21T11:38:29;18.02;;;10.80;;
52564;SDS011;38460;53.106;7.004;2024-02-21T11:40:55;20.58;;;10.98;;
52564;SDS011;38460;53.106;7.004;2024-02-21T11:43:21;16.55;;;9.45;;
52564;SDS011;38460;53.106;7.004;2024-02-21T11:45:46;16.10;;;10.63;;
52564;SDS011;38460;53.106;7.004;2024-02-21T11:48:12;20.38;;;10.30;;
52564;SDS011;38460;53.106;7.004;2024-02-21T11:50:39;18.50;;;10.25;;
52564;SDS011;38460;53.106;7.004;2024-02-21T11:53:05;18.33;;;10.68;;
52564;SDS011;38460;53.106;7.004;2024-02-21T11:55:30;16.50;;;9.73;;
52564;SDS011;38460;53.106;7.004;2024-02-21T11:57:56;15.25;;;9.10;;
52564;SDS011;38460;53.106;7.004;2024-02-21T12:00:22;15.43;;;9.45;;
52564;SDS011;38460;53.106;7.004;2024-02-21T12:02:51;17.52;;;8.85;;
52564;SDS011;38460;53.106;7.004;2024-02-21T12:05:20;14.07;;;9.23;;
52564;SDS011;38460;53.106;7.004;2024-02-21T12:07:46;11.85;;;8.30;;
52564;SDS011;38460;53.106;7.004;2024-02-21T12:10:12;16.33;;;8.98;;
52564;SDS011;38460;53.106;7.004;2024-02-21T12:12:38;14.88;;;9.77;;
52564;SDS011;38460;53.106;7.004;2024-02-21T12:15:05;15.50;;;9.43;;
52564;SDS011;38460;53.106;7.004;2024-02-21T12:17:39;16.55;;;9.25;;
52564;SDS011;38460;53.106;7.004;2024-02-21T12:20:05;14.60;;;9.25;;
52564;SDS011;38460;53.106;7.004;2024-02-21T12:22:42;17.35;;;9.00;;
52564;SDS011;38460;53.106;7.004;2024-02-21T12:25:21;13.52;;;8.02;;
52564;SDS011;38460;53.106;7.004;2024-02-21T12:27:48;13.27;;;8.60;;
52564;SDS011;38460;53.106;7.004;2024-02-21T12:30:15;14.20;;;8.85;;
52564;SDS011;38460;53.106;7.004;2024-02-21T12:32:42;14.35;;;8.32;;
52564;SDS011;38460;53.106;7.004;2024-02-21T12:35:08;11.60;;;8.00;;
52564;SDS011;38460;53.106;7.004;2024-02-21T12:37:34;11.85;;;8.00;;
52564;SDS011;38460;53.106;7.004;2024-02-21T12:40:00;14.30;;;7.82;;
52564;SDS011;38460;53.106;7.004;2024-02-21T12:42:26;12.20;;;7.97;;
52564;SDS011;38460;53.106;7.004;2024-02-21T12:44:53;11.88;;;7.60;;
52564;SDS011;38460;53.106;7.004;2024-02-21T12:47:19;14.43;;;7.45;;
52564;SDS011;38460;53.106;7.004;2024-02-21T12:49:48;10.50;;;6.63;;
52564;SDS011;38460;53.106;7.004;2024-02-21T12:52:14;15.43;;;7.25;;
52564;SDS011;38460;53.106;7.004;2024-02-21T12:54:40;11.02;;;7.30;;
52564;SDS011;38460;53.106;7.004;2024-02-21T12:57:07;12.13;;;7.45;;
52564;SDS011;38460;53.106;7.004;2024-02-21T12:59:33;14.23;;;7.60;;
52564;SDS011;38460;53.106;7.004;2024-02-21T13:01:59;11.60;;;7.30;;
52564;SDS011;38460;53.106;7.004;2024-02-21T13:04:25;13.60;;;8.13;;
52564;SDS011;38460;53.106;7.004;2024-02-21T13:06:50;12.05;;;8.25;;
52564;SDS011;38460;53.106;7.004;2024-02-21T13:09:16;10.05;;;6.82;;
52564;SDS011;38460;53.106;7.004;2024-02-21T13:11:43;12.85;;;6.32;;
52564;SDS011;38460;53.106;7.004;2024-02-21T13:14:12;10.82;;;6.55;;
52564;SDS011;38460;53.106;7.004;2024-02-21T13:16:38;9.35;;;5.50;;
52564;SDS011;38460;53.106;7.004;2024-02-21T13:19:06;10.73;;;6.35;;
52564;SDS011;38460;53.106;7.004;2024-02-21T13:21:36;8.02;;;5.47;;
52564;SDS011;38460;53.106;7.004;2024-02-21T13:24:02;9.45;;;5.80;;
52564;SDS011;38460;53.106;7.004;2024-02-21T13:26:28;10.35;;;5.60;;
52564;SDS011;38460;53.106;7.004;2024-02-21T13:28:54;11.05;;;5.85;;
52564;SDS011;38460;53.106;7.004;2024-02-21T13:31:20;9.75;;;5.45;;
52564;SDS011;38460;53.106;7.004;2024-02-21T13:33:46;8.90;;;5.22;;
52564;SDS011;38460;53.106;7.004;2024-02-21T13:36:12;7.53;;;4.65;;
52564;SDS011;38460;53.106;7.004;2024-02-21T13:38:37;6.93;;;4.30;;
52564;SDS011;38460;53.106;7.004;2024-02-21T13:41:06;7.18;;;4.20;;
52564;SDS011;38460;53.106;7.004;2024-02-21T13:43:33;7.38;;;4.32;;
52564;SDS011;38460;53.106;7.004;2024-02-21T13:46:00;6.85;;;4.80;;
52564;SDS011;38460;53.106;7.004;2024-02-21T13:48:34;7.53;;;4.20;;
52564;SDS011;38460;53.106;7.004;2024-02-21T13:51:00;6.57;;;4.35;;
52564;SDS011;38460;53.106;7.004;2024-02-21T13:53:27;5.70;;;4.00;;
52564;SDS011;38460;53.106;7.004;2024-02-21T13:55:54;6.25;;;3.80;;
52564;SDS011;38460;53.106;7.004;2024-02-21T13:58:19;6.53;;;4.38;;
52564;SDS011;38460;53.106;7.004;2024-02-21T14:00:46;6.75;;;4.22;;
52564;SDS011;38460;53.106;7.004;2024-02-21T14:03:11;7.50;;;4.25;;
52564;SDS011;38460;53.106;7.004;2024-02-21T14:05:37;6.43;;;4.00;;
52564;SDS011;38460;53.106;7.004;2024-02-21T14:08:05;6.57;;;4.60;;
52564;SDS011;38460;53.106;7.004;2024-02-21T14:10:31;7.72;;;4.60;;
52564;SDS011;38460;53.106;7.004;2024-02-21T14:12:58;8.15;;;4.60;;
52564;SDS011;38460;53.106;7.004;2024-02-21T14:15:25;7.78;;;4.95;;
52564;SDS011;38460;53.106;7.004;2024-02-21T14:17:51;7.68;;;5.00;;
52564;SDS011;38460;53.106;7.004;2024-02-21T14:20:17;7.25;;;4.72;;
52564;SDS011;38460;53.106;7.004;2024-02-21T14:22:42;7.57;;;5.03;;
52564;SDS011;38460;53.106;7.004;2024-02-21T14:25:08;7.78;;;4.90;;
52564;SDS011;38460;53.106;7.004;2024-02-21T14:27:34;9.15;;;4.70;;
52564;SDS011;38460;53.106;7.004;2024-02-21T14:30:03;7.47;;;4.47;;
52564;SDS011;38460;53.106;7.004;2024-02-21T14:32:29;9.75;;;5.18;;
52564;SDS011;38460;53.106;7.004;2024-02-21T14:34:55;11.27;;;5.60;;